Time;durP1;ratioP1;P1;durP2;ratioP2;P2;SDS_P1;SDS_P2;PMS_P1;PMS_P2;Temp;Humidity;BMP_temperature;BMP_pressure;BME280_temperature;BME280_humidity;BME280_pressure;Samples;Min_cycle;Max_cycle;Signal;HPM_P1;HPM_P2
2022/10/23 00:01:31;;;;;;;6.22;1.83;;;11.30;99.90;;;10.80;100.00;97325.81;4949886;28;20042;-57
2022/10/23 00:04:05;;;;;;;4.28;1.85;;;11.20;99.90;;;10.79;100.00;97323.22;4956115;28;20507;-56
2022/10/23 00:06:32;;;;;;;4.20;1.92;;;11.20;99.90;;;10.74;100.00;97319.91;4964962;28;20053;-57
2022/10/23 00:08:58;;;;;;;3.15;1.90;;;11.20;99.90;;;10.76;100.00;97315.41;4941020;28;20027;-57
2022/10/23 00:11:28;;;;;;;3.25;1.83;;;11.20;99.90;;;10.73;100.00;97313.78;4960223;28;20045;-57
2022/10/23 00:13:58;;;;;;;2.97;1.80;;;11.20;99.90;;;10.68;100.00;97308.66;4958240;28;20499;-56
2022/10/23 00:16:24;;;;;;;9.85;2.40;;;11.10;99.90;;;10.67;100.00;97311.34;4952330;28;20069;-58
2022/10/23 00:18:50;;;;;;;5.00;1.92;;;11.10;99.90;;;10.64;100.00;97303.56;4940657;28;20284;-58
2022/10/23 00:21:17;;;;;;;2.47;2.13;;;11.10;99.90;;;10.60;100.00;97302.81;4963634;28;20097;-57
2022/10/23 00:23:43;;;;;;;4.15;2.38;;;11.10;99.90;;;10.57;100.00;97300.31;4961893;28;20022;-57
2022/10/23 00:26:13;;;;;;;3.50;2.10;;;11.00;99.90;;;10.54;100.00;97304.84;4962496;28;20030;-57
2022/10/23 00:28:39;;;;;;;8.07;2.30;;;11.00;99.90;;;10.52;100.00;97311.97;4940454;28;20026;-58
2022/10/23 00:31:05;;;;;;;5.10;2.65;;;11.00;99.90;;;10.37;100.00;97301.06;4964456;28;20030;-57
2022/10/23 00:33:32;;;;;;;3.78;2.65;;;11.00;99.90;;;10.48;100.00;97327.91;4969189;28;20038;-58
2022/10/23 00:35:57;;;;;;;4.65;2.75;;;11.00;99.90;;;10.45;100.00;97321.88;4961067;28;20681;-57
2022/10/23 00:38:23;;;;;;;4.43;2.80;;;10.90;99.90;;;10.41;100.00;97321.13;4966942;28;20076;-57
2022/10/23 00:40:50;;;;;;;6.07;2.88;;;10.80;99.90;;;10.41;100.00;97314.97;4945808;28;20404;-57
2022/10/23 00:43:24;;;;;;;7.93;3.22;;;10.80;99.90;;;10.38;100.00;97323.03;4964996;28;20288;-57
2022/10/23 00:45:49;;;;;;;3.97;2.67;;;10.80;99.90;;;10.34;100.00;97313.47;4946743;28;20026;-57
2022/10/23 00:48:16;;;;;;;5.05;3.15;;;10.80;99.90;;;10.35;100.00;97310.78;4948560;28;20073;-57
2022/10/23 00:50:43;;;;;;;3.95;2.70;;;10.80;99.90;;;10.31;100.00;97307.41;4949438;28;20041;-57
2022/10/23 00:53:11;;;;;;;4.45;3.03;;;10.80;99.90;;;10.29;100.00;97300.47;4969385;28;20523;-58
2022/10/23 00:55:40;;;;;;;8.27;3.00;;;10.80;99.90;;;10.27;100.00;97300.50;4970233;28;20500;-58
2022/10/23 00:58:06;;;;;;;4.45;2.40;;;10.70;99.90;;;10.26;100.00;97303.19;4944301;28;20085;-56
2022/10/23 01:00:44;;;;;;;4.40;2.25;;;10.70;99.90;;;10.24;100.00;97300.63;4963066;28;20034;-57
2022/10/23 01:03:10;;;;;;;3.90;2.38;;;10.70;99.90;;;10.23;100.00;97300.66;4962812;28;20040;-57
2022/10/23 01:05:59;;;;;;;3.72;2.30;;;10.70;99.90;;;10.21;100.00;97291.97;4959289;28;20042;-58
2022/10/23 01:08:34;;;;;;;3.20;2.20;;;10.70;99.90;;;10.20;100.00;97299.03;4961703;28;20696;-57
2022/10/23 01:11:12;;;;;;;4.93;2.40;;;10.70;99.90;;;10.19;100.00;97296.44;4954866;28;20027;-57
2022/10/23 01:14:00;;;;;;;3.47;2.13;;;10.60;99.90;;;10.19;100.00;97301.72;4950361;28;20031;-58
2022/10/23 01:16:46;;;;;;;3.53;2.00;;;10.60;99.90;;;10.17;100.00;97293.00;4947422;28;20093;-57
2022/10/23 01:19:52;;;;;;;7.03;2.45;;;10.60;99.90;;;10.16;100.00;97299.19;4950774;28;20038;-57
2022/10/23 01:23:14;;;;;;;3.95;1.90;;;10.60;99.90;;;10.16;100.00;97286.00;4942677;28;20042;-57
2022/10/23 01:26:02;;;;;;;3.85;1.92;;;10.60;99.90;;;10.13;100.00;97281.72;4969426;28;20042;-57
2022/10/23 01:28:34;;;;;;;2.85;2.03;;;10.60;99.90;;;10.13;100.00;97279.09;4970655;28;20030;-57
2022/10/23 01:31:04;;;;;;;5.88;2.53;;;10.60;99.90;;;10.11;100.00;97279.13;4955304;28;20034;-57
2022/10/23 01:33:40;;;;;;;4.20;2.33;;;10.60;99.90;;;10.10;100.00;97277.44;4942662;28;20046;-57
2022/10/23 01:36:13;;;;;;;3.92;2.20;;;10.60;99.90;;;10.10;100.00;97272.16;4953865;28;20042;-57
2022/10/23 01:38:52;;;;;;;8.13;2.35;;;10.60;99.90;;;10.09;100.00;97274.84;4950686;28;20153;-57
2022/10/23 01:41:27;;;;;;;3.65;2.08;;;10.60;99.90;;;10.06;100.00;97264.41;4956979;28;20571;-57
2022/10/23 01:44:13;;;;;;;4.80;2.45;;;10.60;99.90;;;10.06;100.00;97264.41;4942312;28;20035;-57
2022/10/23 01:46:41;;;;;;;2.33;2.00;;;10.50;99.90;;;10.06;100.00;97259.16;4943332;28;20039;-57
2022/10/23 01:49:10;;;;;;;5.60;2.50;;;10.60;99.90;;;10.08;100.00;97262.59;4959336;28;20605;-57
2022/10/23 01:51:38;;;;;;;2.63;1.88;;;10.50;99.90;;;10.09;100.00;97254.63;4948283;28;20038;-57
2022/10/23 01:54:08;;;;;;;5.43;2.10;;;10.60;99.90;;;10.17;100.00;97261.38;4941133;28;20039;-57
2022/10/23 01:56:36;;;;;;;3.25;2.03;;;10.60;99.90;;;10.19;100.00;97259.53;4945073;28;20499;-57
2022/10/23 01:59:10;;;;;;;3.22;1.85;;;10.60;99.90;;;10.18;100.00;97253.44;4936983;28;20042;-56
2022/10/23 02:01:39;;;;;;;2.38;1.80;;;10.60;99.90;;;10.18;100.00;97260.47;4964589;28;20034;-59
2022/10/23 02:04:09;;;;;;;3.60;1.88;;;10.60;99.90;;;10.14;100.00;97251.84;4959769;28;20041;-57
2022/10/23 02:06:35;;;;;;;3.97;1.95;;;10.60;99.90;;;10.12;100.00;97258.91;4938511;28;20505;-57
2022/10/23 02:09:01;;;;;;;2.50;1.92;;;10.60;99.90;;;10.11;100.00;97251.94;4965412;28;20565;-56
2022/10/23 02:11:26;;;;;;;2.42;1.80;;;10.60;99.90;;;10.09;100.00;97244.09;4962445;28;20031;-57
2022/10/23 02:14:24;;;;;;;3.15;1.75;;;10.60;99.90;;;10.07;100.00;97240.66;4956993;28;20038;-57
2022/10/23 02:16:53;;;;;;;2.50;1.60;;;10.50;99.90;;;10.08;100.00;97246.78;4944860;28;20053;-57
2022/10/23 02:19:39;;;;;;;2.80;1.65;;;10.50;99.90;;;10.07;100.00;97240.66;4956426;28;20683;-57
2022/10/23 02:22:24;;;;;;;3.15;1.70;;;10.50;99.90;;;10.05;100.00;97234.59;4953539;28;20042;-57
2022/10/23 02:25:20;;;;;;;2.00;1.80;;;10.50;99.90;;;10.04;100.00;97232.00;4951448;28;20513;-56
2022/10/23 02:27:51;;;;;;;4.47;1.75;;;10.50;99.90;;;10.07;100.00;97229.25;4936416;28;20041;-59
2022/10/23 02:30:18;;;;;;;2.78;1.52;;;10.60;99.90;;;10.09;100.00;97240.59;4955163;28;20113;-59
2022/10/23 02:32:49;;;;;;;2.38;1.73;;;10.50;99.90;;;10.10;100.00;97237.91;4944233;28;20046;-57
2022/10/23 02:35:16;;;;;;;3.97;1.83;;;10.60;99.90;;;10.15;100.00;97227.19;4936426;28;20496;-58
2022/10/23 02:37:42;;;;;;;2.58;2.00;;;10.60;99.90;;;10.19;100.00;97220.88;4964219;28;20515;-57
2022/10/23 02:40:10;;;;;;;3.25;2.25;;;10.70;99.90;;;10.23;100.00;97213.69;4964118;28;20244;-57
2022/10/23 02:42:45;;;;;;;2.97;2.33;;;10.70;99.90;;;10.27;100.00;97220.59;4961411;28;20042;-57
2022/10/23 02:45:33;;;;;;;3.00;2.00;;;10.70;99.90;;;10.30;100.00;97216.06;4936605;28;20045;-58
2022/10/23 02:48:13;;;;;;;2.45;1.90;;;10.80;99.90;;;10.32;100.00;97208.13;4954464;28;20030;-57
2022/10/23 02:50:59;;;;;;;3.72;2.03;;;10.80;99.90;;;10.36;100.00;97208.88;4953914;28;20121;-57
2022/10/23 02:54:15;;;;;;;3.85;2.10;;;10.80;99.90;;;10.37;100.00;97200.03;4944750;28;20503;-57
2022/10/23 02:57:12;;;;;;;3.75;2.00;;;10.80;99.90;;;10.37;100.00;97194.75;4926482;28;20069;-57
2022/10/23 02:59:52;;;;;;;3.05;2.17;;;10.90;99.90;;;10.38;100.00;97199.97;4957054;28;20027;-57
2022/10/23 03:02:27;;;;;;;4.88;2.15;;;10.80;99.90;;;10.37;100.00;97194.75;4947455;28;20022;-57
2022/10/23 03:04:55;;;;;;;4.22;1.90;;;10.80;99.90;;;10.35;100.00;97197.44;4938401;28;23495;-57
2022/10/23 03:07:21;;;;;;;3.92;2.10;;;10.80;99.90;;;10.34;100.00;97195.75;4941726;28;20556;-57
2022/10/23 03:09:46;;;;;;;3.35;1.95;;;10.80;99.90;;;10.34;100.00;97194.88;4953138;28;20026;-57
2022/10/23 03:12:12;;;;;;;4.45;1.95;;;10.80;99.90;;;10.31;100.00;97191.44;4958095;28;20466;-57
2022/10/23 03:14:38;;;;;;;4.13;2.00;;;10.80;99.90;;;10.29;100.00;97192.41;4943610;28;20077;-57
2022/10/23 03:17:04;;;;;;;3.40;1.90;;;10.70;99.90;;;10.23;100.00;97190.88;4971893;28;20177;-58
2022/10/23 03:19:30;;;;;;;4.72;2.10;;;10.70;99.90;;;10.22;100.00;97199.69;4962585;28;20196;-57
2022/10/23 03:21:56;;;;;;;3.83;1.88;;;10.70;99.90;;;10.20;100.00;97204.16;4968149;28;20034;-57
2022/10/23 03:24:22;;;;;;;2.88;1.85;;;10.70;99.90;;;10.17;100.00;97200.78;4972549;28;20033;-57
2022/10/23 03:26:47;;;;;;;4.28;1.70;;;10.60;99.90;;;10.12;100.00;97196.56;4965589;28;20038;-57
2022/10/23 03:29:13;;;;;;;3.60;2.10;;;10.60;99.90;;;10.09;100.00;97195.81;4960476;28;20030;-57
2022/10/23 03:31:39;;;;;;;3.80;2.40;;;10.50;99.90;;;10.07;100.00;97184.47;4948565;28;20299;-57
2022/10/23 03:34:09;;;;;;;3.63;2.00;;;10.50;99.90;;;10.06;100.00;97188.00;4967892;28;20113;-58
2022/10/23 03:36:36;;;;;;;2.75;1.70;;;10.50;99.90;;;10.04;100.00;97188.06;4964638;28;20239;-57
2022/10/23 03:39:03;;;;;;;2.13;1.63;;;10.50;99.90;;;10.03;100.00;97180.22;4971108;28;20045;-58
2022/10/23 03:41:29;;;;;;;2.13;1.80;;;10.50;99.90;;;10.02;100.00;97179.38;4966496;28;20045;-57
2022/10/23 03:43:55;;;;;;;3.90;2.25;;;10.50;99.90;;;10.03;100.00;97183.72;4960646;28;20103;-57
2022/10/23 03:46:21;;;;;;;3.33;2.30;;;10.50;99.90;;;10.06;100.00;97182.75;4950795;28;20488;-57
2022/10/23 03:48:46;;;;;;;3.35;2.15;;;10.50;99.90;;;10.08;100.00;97179.13;4976320;23;20041;-48
2022/10/23 03:51:12;;;;;;;3.70;2.45;;;10.50;99.90;;;10.12;100.00;97182.50;4968475;28;20125;-44
2022/10/23 03:53:38;;;;;;;4.55;2.10;;;10.60;99.90;;;10.15;100.00;97177.13;4961541;28;20049;-45
2022/10/23 03:56:04;;;;;;;6.85;2.92;;;10.60;99.90;;;10.15;100.00;97168.34;4963988;28;20034;-47
2022/10/23 03:58:30;;;;;;;2.72;1.80;;;10.60;99.90;;;10.16;100.00;97170.94;4962705;28;20038;-47
2022/10/23 04:00:56;;;;;;;4.20;2.20;;;10.60;99.90;;;10.16;100.00;97172.69;4955537;28;20327;-46
2022/10/23 04:03:22;;;;;;;4.10;2.33;;;10.60;99.90;;;10.18;100.00;97169.09;4958650;28;20039;-48
2022/10/23 04:05:48;;;;;;;3.17;2.22;;;10.60;99.90;;;10.20;100.00;97176.94;4965235;28;20487;-45
2022/10/23 04:08:14;;;;;;;4.00;2.30;;;10.70;99.90;;;10.23;100.00;97177.69;4956920;28;20030;-49
2022/10/23 04:10:39;;;;;;;3.08;2.38;;;10.70;99.90;;;10.27;100.00;97175.78;4957513;28;20036;-46
2022/10/23 04:13:05;;;;;;;3.53;2.30;;;10.70;99.90;;;10.30;100.00;97179.16;4959066;28;20058;-47
2022/10/23 04:15:31;;;;;;;3.08;2.58;;;10.70;99.90;;;10.30;100.00;97181.78;4964201;28;20041;-45
2022/10/23 04:17:56;;;;;;;3.45;2.17;;;10.80;99.90;;;10.31;100.00;97175.63;4957712;28;22368;-45
2022/10/23 04:20:22;;;;;;;3.45;2.50;;;10.80;99.90;;;10.32;100.00;97184.41;4965025;28;20121;-45
2022/10/23 04:22:48;;;;;;;3.28;2.35;;;10.80;99.90;;;10.17;100.00;97164.72;4966026;28;20162;-47
2022/10/23 04:25:15;;;;;;;3.30;2.20;;;10.80;99.90;;;10.25;100.00;97185.53;4964588;28;20560;-48
2022/10/23 04:27:41;;;;;;;4.38;1.92;;;10.70;99.90;;;10.18;100.00;97182.28;4961993;28;20027;-45
2022/10/23 04:30:08;;;;;;;5.40;2.50;;;10.70;99.90;;;10.17;100.00;97182.31;4966204;28;20141;-49
2022/10/23 04:32:34;;;;;;;3.45;2.20;;;10.70;99.90;;;10.18;100.00;97187.53;4967344;28;20043;-46
2022/10/23 04:35:00;;;;;;;3.45;2.20;;;10.70;99.90;;;10.12;100.00;97180.75;4958123;28;20169;-45
2022/10/23 04:37:26;;;;;;;4.28;2.17;;;10.70;99.90;;;10.25;100.00;97186.38;4957966;28;20079;-47
2022/10/23 04:39:52;;;;;;;5.68;2.30;;;10.70;99.90;;;10.31;100.00;97183.53;4971133;28;20061;-47
2022/10/23 04:42:18;;;;;;;3.28;2.35;;;10.80;99.90;;;10.36;100.00;97178.09;4941900;28;20058;-47
2022/10/23 04:44:43;;;;;;;2.97;2.20;;;10.80;99.90;;;10.43;100.00;97170.81;4964503;28;20045;-46
2022/10/23 04:47:09;;;;;;;3.47;2.40;;;10.90;99.90;;;10.46;100.00;97168.91;4946031;28;21043;-46
2022/10/23 04:49:35;;;;;;;3.13;2.13;;;10.90;99.90;;;10.50;100.00;97177.56;4958106;28;20078;-47
2022/10/23 04:52:01;;;;;;;6.40;2.53;;;10.90;99.90;;;10.52;100.00;97175.69;4947520;28;20042;-47
2022/10/23 04:54:26;;;;;;;7.00;2.90;;;11.00;99.90;;;10.55;100.00;97172.94;4937503;28;20114;-46
2022/10/23 04:56:52;;;;;;;3.40;2.10;;;11.00;99.90;;;10.58;100.00;97177.22;4945565;28;20038;-44
2022/10/23 04:59:18;;;;;;;5.45;2.28;;;11.00;99.90;;;10.59;100.00;97169.25;4957092;28;20033;-46
2022/10/23 05:01:43;;;;;;;4.22;1.90;;;11.10;99.90;;;10.67;100.00;97179.50;4956677;28;20369;-46
2022/10/23 05:04:09;;;;;;;4.70;2.20;;;11.10;99.90;;;10.70;100.00;97180.22;4950426;28;20089;-45
2022/10/23 05:06:35;;;;;;;3.85;1.92;;;11.10;99.90;;;10.72;100.00;97180.16;4949404;28;20493;-47
2022/10/23 05:09:00;;;;;;;3.33;1.85;;;11.10;99.90;;;10.75;100.00;97177.41;4945369;28;20049;-48
2022/10/23 05:11:26;;;;;;;4.22;2.10;;;11.20;99.90;;;10.76;100.00;97170.34;4954613;28;20070;-46
2022/10/23 05:13:52;;;;;;;2.70;1.83;;;11.20;99.90;;;10.77;100.00;97172.94;4963466;28;20042;-47
2022/10/23 05:16:50;;;;;;;4.95;2.78;;;11.20;99.90;;;10.77;100.00;97167.66;4954535;28;20041;-46
2022/10/23 05:19:43;;;;;;;4.05;2.38;;;11.20;99.90;;;10.79;100.00;97165.81;4926114;28;20091;-46
2022/10/23 05:22:10;;;;;;;3.08;1.85;;;11.20;99.90;;;10.79;100.00;97171.06;4942796;28;20420;-47
2022/10/23 05:24:35;;;;;;;3.35;1.80;;;11.20;99.90;;;10.80;100.00;97164.00;4964227;28;20048;-46
2022/10/23 05:27:01;;;;;;;3.95;2.38;;;11.20;99.90;;;10.76;100.00;97152.72;4947620;28;20030;-47
2022/10/23 05:29:27;;;;;;;3.85;2.25;;;11.20;99.90;;;10.74;100.00;97156.38;4965431;28;20492;-49
2022/10/23 05:32:00;;;;;;;3.25;2.00;;;11.20;99.90;;;10.71;100.00;97165.25;4964711;28;20117;-45
2022/10/23 05:34:27;;;;;;;2.58;1.85;;;11.10;99.90;;;10.72;100.00;97171.41;4964463;28;20527;-48
2022/10/23 05:36:53;;;;;;;3.45;2.08;;;11.10;99.90;;;10.73;100.00;97163.44;4954843;28;20034;-45
2022/10/23 05:39:19;;;;;;;4.47;2.08;;;11.20;99.90;;;10.69;100.00;97152.16;4939720;28;20514;-45
2022/10/23 05:41:45;;;;;;;3.22;1.70;;;11.20;99.90;;;10.72;100.00;97159.06;4923216;28;20396;-48
2022/10/23 05:44:11;;;;;;;4.88;2.00;;;11.20;99.90;;;10.69;100.00;97153.91;4948934;28;20176;-46
2022/10/23 05:46:43;;;;;;;2.83;1.73;;;11.10;99.90;;;10.64;100.00;97153.22;4930154;28;20045;-46
2022/10/23 05:49:08;;;;;;;3.38;2.00;;;11.10;99.90;;;10.59;100.00;97149.94;4937921;28;20105;-49
2022/10/23 05:51:39;;;;;;;2.47;1.73;;;11.00;99.90;;;10.52;100.00;97145.84;4958481;28;20783;-45
2022/10/23 05:54:07;;;;;;;3.53;1.70;;;11.00;99.90;;;10.41;100.00;97133.06;4963959;28;20042;-46
2022/10/23 05:56:40;;;;;;;2.85;1.80;;;10.90;99.90;;;10.41;100.00;97139.22;4950229;28;20584;-48
2022/10/23 05:59:06;;;;;;;6.88;1.90;;;10.90;99.90;;;10.39;100.00;97129.66;4941209;28;20996;-46
2022/10/23 06:01:32;;;;;;;3.45;1.95;;;10.80;99.90;;;10.37;100.00;97127.06;4963682;28;20030;-45
2022/10/23 06:04:00;;;;;;;4.07;2.00;;;10.80;99.90;;;10.39;100.00;97127.00;4963328;28;20266;-45
2022/10/23 06:06:26;;;;;;;3.05;2.00;;;10.90;99.90;;;10.42;100.00;97132.16;4956321;28;20046;-44
2022/10/23 06:08:52;;;;;;;4.22;1.90;;;10.90;99.90;;;10.49;100.00;97138.91;4936612;28;20032;-47
2022/10/23 06:11:18;;;;;;;2.58;1.90;;;10.90;99.90;;;10.55;100.00;97135.16;4965061;28;20043;-47
2022/10/23 06:13:46;;;;;;;3.47;1.90;;;11.00;99.90;;;10.64;100.00;97135.66;4959474;28;20057;-46
2022/10/23 06:16:16;;;;;;;7.20;2.20;;;11.10;99.90;;;10.71;100.00;97125.69;4984580;28;20184;-46
2022/10/23 06:18:42;;;;;;;5.90;2.20;;;11.10;99.90;;;10.77;100.00;97132.50;4981028;28;20201;-47
2022/10/23 06:21:09;;;;;;;4.00;1.80;;;11.20;99.90;;;10.76;100.00;97131.63;4983333;28;20038;-46
2022/10/23 06:23:36;;;;;;;3.28;1.90;;;11.20;99.90;;;10.77;100.00;97127.22;4982749;28;20092;-46
2022/10/23 06:26:03;;;;;;;2.63;2.15;;;11.20;99.90;;;10.80;100.00;97127.97;4979725;28;20386;-46
2022/10/23 06:28:28;;;;;;;4.80;2.20;;;11.20;99.90;;;10.85;100.00;97133.88;4958351;28;20045;-46
2022/10/23 06:30:54;;;;;;;6.93;2.30;;;11.30;99.90;;;10.89;100.00;97135.47;4967207;28;20034;-46
2022/10/23 06:33:20;;;;;;;4.63;2.08;;;11.30;99.90;;;10.92;100.00;97138.91;4970482;28;20121;-48
2022/10/23 06:35:45;;;;;;;2.25;1.80;;;11.30;99.90;;;10.98;100.00;97136.88;4966741;28;20033;-47
2022/10/23 06:38:11;;;;;;;3.13;1.70;;;11.40;99.90;;;11.04;100.00;97130.47;4963899;28;20037;-48
2022/10/23 06:40:37;;;;;;;3.20;1.80;;;11.50;99.90;;;11.11;100.00;97128.41;4968377;28;20121;-49
2022/10/23 06:43:04;;;;;;;4.15;1.70;;;11.50;99.90;;;11.15;100.00;97130.84;4962439;28;20586;-46
2022/10/23 06:45:35;;;;;;;5.60;1.73;;;11.60;99.90;;;11.23;100.00;97135.78;4968068;28;20039;-49
2022/10/23 06:48:01;;;;;;;1.92;1.60;;;11.60;99.90;;;11.28;100.00;97121.47;4971152;28;20058;-48
2022/10/23 06:50:29;;;;;;;4.18;2.03;;;11.70;99.90;;;11.32;100.00;97126.63;4968519;28;20129;-47
2022/10/23 06:52:56;;;;;;;2.72;2.00;;;11.80;99.90;;;11.37;100.00;97124.63;4962966;28;20033;-45
2022/10/23 06:55:22;;;;;;;6.57;2.28;;;11.90;99.90;;;11.30;100.00;97102.06;4966302;28;20035;-49
2022/10/23 06:57:47;;;;;;;2.70;2.30;;;11.90;99.90;;;11.50;100.00;97120.50;4963260;28;20306;-48
2022/10/23 07:00:13;;;;;;;7.13;3.00;;;11.90;99.90;;;11.55;100.00;97117.66;4951796;28;20153;-48
2022/10/23 07:02:39;;;;;;;7.05;2.60;;;12.00;99.90;;;11.58;100.00;97115.75;4979012;28;22008;-46
2022/10/23 07:05:05;;;;;;;3.40;2.20;;;12.10;99.90;;;11.65;100.00;97114.53;4973559;28;20504;-46
2022/10/23 07:07:31;;;;;;;2.35;1.75;;;12.10;99.90;;;11.72;100.00;97125.69;4973077;28;20035;-49
2022/10/23 07:09:57;;;;;;;2.95;1.90;;;12.10;99.90;;;11.77;100.00;97123.69;4978717;28;20578;-49
2022/10/23 07:12:22;;;;;;;3.70;2.08;;;12.20;99.90;;;11.84;100.00;97124.25;4985922;28;20173;-48
2022/10/23 07:14:48;;;;;;;3.40;1.98;;;12.30;99.90;;;11.89;100.00;97121.41;4985750;28;20083;-47
2022/10/23 07:17:14;;;;;;;3.35;1.80;;;12.30;99.90;;;11.95;100.00;97121.13;4965896;28;20496;-49
2022/10/23 07:19:40;;;;;;;3.97;1.65;;;12.40;99.90;;;11.98;100.00;97116.56;4984902;28;20046;-48
2022/10/23 07:22:05;;;;;;;2.88;1.75;;;12.40;99.90;;;12.01;100.00;97115.59;4972601;28;20081;-47
2022/10/23 07:24:35;;;;;;;2.38;1.52;;;12.40;99.90;;;12.03;100.00;97117.22;4986596;28;20023;-49
2022/10/23 07:27:02;;;;;;;3.72;2.08;;;12.50;99.90;;;12.05;100.00;97111.84;4981255;28;20033;-49
2022/10/23 07:29:28;;;;;;;3.88;2.22;;;12.50;99.90;;;12.11;100.00;97106.25;4965591;28;20026;-48
2022/10/23 07:31:54;;;;;;;4.72;1.98;;;12.50;99.90;;;12.16;100.00;97103.41;4981907;28;20491;-49
2022/10/23 07:34:20;;;;;;;3.00;1.83;;;12.60;99.90;;;12.24;100.00;97114.50;4987523;28;20022;-47
2022/10/23 07:36:46;;;;;;;3.83;1.88;;;12.60;99.90;;;12.31;100.00;97112.38;4979904;28;20046;-48
2022/10/23 07:39:12;;;;;;;3.28;2.00;;;12.70;99.90;;;12.35;100.00;97119.25;4983036;28;20657;-48
2022/10/23 07:41:37;;;;;;;3.47;2.40;;;12.80;99.90;;;12.43;100.00;97121.53;4973514;28;20215;-46
2022/10/23 07:44:03;;;;;;;3.35;2.28;;;12.90;99.90;;;12.54;100.00;97127.13;4967408;28;20038;-48
2022/10/23 07:46:29;;;;;;;5.32;2.22;;;13.00;99.90;;;12.61;100.00;97123.25;4979457;28;20129;-49
2022/10/23 07:48:54;;;;;;;4.57;2.03;;;13.10;99.90;;;12.73;100.00;97127.94;4970079;28;20385;-45
2022/10/23 07:51:20;;;;;;;2.35;1.65;;;13.20;99.90;;;12.84;100.00;97129.19;4981979;28;20030;-46
2022/10/23 07:53:46;;;;;;;2.92;1.63;;;13.20;99.90;;;12.94;100.00;97130.44;4983061;28;20030;-45
2022/10/23 07:56:19;;;;;;;4.32;1.92;;;13.40;99.90;;;13.04;100.00;97134.31;4976224;28;20068;-47
2022/10/23 07:58:44;;;;;;;3.75;1.60;;;13.50;99.90;;;13.12;100.00;97134.78;4980596;28;20677;-48
2022/10/23 08:01:36;;;;;;;2.78;1.65;;;13.50;99.90;;;13.21;100.00;97136.13;4989730;28;20123;-48
2022/10/23 08:04:03;;;;;;;3.13;1.60;;;13.60;99.90;;;13.27;100.00;97138.44;4962648;28;20038;-50
2022/10/23 08:06:29;;;;;;;1.88;1.30;;;13.70;99.90;;;13.35;100.00;97138.94;4978971;28;20046;-46
2022/10/23 08:08:54;;;;;;;2.83;1.30;;;13.70;99.90;;;13.41;100.00;97126.31;4983059;28;20267;-49
2022/10/23 08:11:26;;;;;;;2.33;1.63;;;13.90;99.90;;;13.47;100.00;97123.31;4984498;28;21626;-46
2022/10/23 08:13:56;;;;;;;4.75;1.50;;;13.90;99.90;;;13.51;100.00;97112.50;4983151;28;20026;-48
2022/10/23 08:16:23;;;;;;;2.17;1.20;;;13.90;99.90;;;13.58;100.00;97114.81;4981096;28;20058;-48
2022/10/23 08:18:49;;;;;;;1.55;1.20;;;14.00;99.90;;;13.65;100.00;97118.84;4983193;28;20038;-47
2022/10/23 08:21:16;;;;;;;1.25;1.13;;;14.10;99.90;;;13.75;100.00;97130.66;4987269;28;20038;-49
2022/10/23 08:23:42;;;;;;;1.10;1.00;;;14.20;99.90;;;13.87;100.00;97123.81;4986593;28;20112;-46
2022/10/23 08:26:09;;;;;;;1.10;0.93;;;14.30;99.90;;;13.93;100.00;97107.59;4968920;28;20038;-46
2022/10/23 08:28:36;;;;;;;1.63;1.10;;;14.40;99.90;;;14.04;100.00;97110.50;4980974;28;20522;-46
2022/10/23 08:31:11;;;;;;;2.08;0.98;;;14.50;99.90;;;14.13;100.00;97120.59;4976998;28;20392;-49
2022/10/23 08:33:38;;;;;;;1.75;1.08;;;14.60;99.90;;;14.23;100.00;97113.00;4964791;28;20033;-45
2022/10/23 08:36:04;;;;;;;3.22;1.20;;;14.70;99.90;;;14.30;100.00;97111.72;4984595;28;20506;-47
2022/10/23 08:38:30;;;;;;;4.32;0.98;;;14.70;99.90;;;14.33;100.00;97098.25;4987759;28;20037;-50
2022/10/23 08:40:56;;;;;;;1.13;0.85;;;14.80;99.90;;;14.36;100.00;97107.00;4984570;28;20132;-49
2022/10/23 08:43:35;;;;;;;1.70;1.20;;;14.80;99.90;;;14.35;100.00;97103.47;4983931;28;20487;-49
2022/10/23 08:46:08;;;;;;;1.95;0.90;;;14.80;99.90;;;14.32;100.00;97095.72;4945130;28;20491;-44
2022/10/23 08:48:50;;;;;;;0.93;0.82;;;14.70;99.90;;;14.33;100.00;97084.13;4960085;28;20045;-41
2022/10/23 08:51:41;;;;;;;1.30;0.93;;;14.80;99.90;;;14.43;100.00;97092.44;4973037;28;20034;-42
2022/10/23 08:54:39;;;;;;;1.50;1.15;;;14.80;99.90;;;14.47;100.00;97096.63;4958702;28;20034;-44
2022/10/23 08:57:13;;;;;;;1.42;0.90;;;14.80;99.90;;;14.49;100.00;97092.94;4968110;28;20042;-41
2022/10/23 08:59:53;;;;;;;1.83;0.90;;;14.90;99.90;;;14.55;100.00;97099.66;4954787;28;20354;-45
2022/10/23 09:02:27;;;;;;;2.55;1.15;;;14.90;99.90;;;14.58;100.00;97099.53;4977878;28;20336;-48
2022/10/23 09:04:54;;;;;;;1.60;1.02;;;15.00;99.90;;;14.66;100.00;97099.97;4960950;28;20057;-46
2022/10/23 09:07:32;;;;;;;1.45;1.17;;;15.10;99.90;;;14.80;100.00;97092.97;4959019;28;20083;-48
2022/10/23 09:10:41;;;;;;;2.45;2.00;;;15.20;99.90;;;14.94;100.00;97098.31;4974060;28;20568;-44
2022/10/23 09:14:03;;;;;;;4.47;3.83;;;15.30;99.90;;;15.08;100.00;97105.47;4981800;28;20030;-44
2022/10/23 09:17:12;;;;;;;4.38;3.40;;;15.50;99.90;;;15.22;100.00;97107.31;4966754;28;20076;-45
2022/10/23 09:19:38;;;;;;;2.28;2.08;;;15.60;99.90;;;15.32;100.00;97100.47;4966486;28;20038;-45
2022/10/23 09:22:05;;;;;;;2.65;1.70;;;15.70;99.90;;;15.42;100.00;97101.63;4985247;28;20503;-49
2022/10/23 09:24:32;;;;;;;1.65;1.35;;;15.80;99.90;;;15.52;100.00;97101.06;4983740;28;20109;-48
2022/10/23 09:27:02;;;;;;;1.73;1.33;;;15.90;99.90;;;15.61;100.00;97098.69;4981894;28;20824;-41
2022/10/23 09:29:34;;;;;;;1.90;1.48;;;16.00;99.90;;;15.71;100.00;97093.66;4969417;28;20030;-43
2022/10/23 09:32:03;;;;;;;;;;;16.10;99.90;;;15.81;100.00;97092.16;4977463;28;20123;-48
2022/10/23 09:34:32;;;;;;;2.28;1.40;;;16.20;99.90;;;15.91;100.00;97097.75;4978875;28;20077;-43
2022/10/23 09:37:03;;;;;;;1.80;1.10;;;16.30;99.90;;;16.04;100.00;97092.50;4966133;28;20049;-48
2022/10/23 09:39:34;;;;;;;1.02;0.90;;;16.40;99.90;;;16.14;100.00;97087.47;4961859;28;20022;-48
2022/10/23 09:42:22;;;;;;;1.88;1.20;;;16.50;99.90;;;16.26;100.00;97086.66;4976765;28;20569;-47
2022/10/23 09:44:52;;;;;;;2.05;0.70;;;16.60;99.90;;;16.32;100.00;97075.63;4975153;28;20041;-48
2022/10/23 09:47:22;;;;;;;3.00;1.50;;;16.70;99.90;;;16.39;100.00;97084.06;4967552;28;20042;-45
2022/10/23 09:49:52;;;;;;;2.03;1.40;;;16.80;99.90;;;16.49;100.00;97079.84;4977019;23;20138;-49
2022/10/23 09:52:23;;;;;;;2.85;1.58;;;16.80;99.90;;;16.54;100.00;97077.72;5030333;28;20069;-48
2022/10/23 09:55:01;;;;;;;2.35;1.38;;;16.90;99.90;;;16.64;100.00;97077.97;5024990;28;20314;-48
2022/10/23 09:57:41;;;;;;;1.52;1.20;;;17.00;99.90;;;16.74;100.00;97062.22;5026463;28;20036;-49
2022/10/23 10:00:27;;;;;;;1.48;1.13;;;17.10;99.90;;;16.80;100.00;97060.00;5019052;28;20045;-53
2022/10/23 10:03:05;;;;;;;1.45;1.00;;;17.20;99.90;;;16.96;100.00;97062.50;5019532;28;20539;-49
2022/10/23 10:05:37;;;;;;;6.35;1.30;;;17.30;99.90;;;17.06;100.00;97064.53;5008918;28;20445;-52
2022/10/23 10:08:28;;;;;;;2.80;1.23;;;17.40;99.90;;;17.14;100.00;97062.22;5018536;28;20033;-48
2022/10/23 10:11:19;;;;;;;1.98;1.10;;;17.50;99.90;;;17.33;100.00;97078.63;5005272;28;20042;-51
2022/10/23 10:14:29;;;;;;;3.60;1.17;;;17.70;99.90;;;17.43;100.00;97083.34;5015080;28;20129;-51
2022/10/23 10:17:19;;;;;;;1.52;0.98;;;17.80;99.90;;;17.55;100.00;97085.16;5013954;28;20035;-48
2022/10/23 10:20:17;;;;;;;5.57;1.52;;;17.90;99.90;;;17.63;100.00;97080.09;5008563;28;20086;-51
2022/10/23 10:22:53;;;;;;;2.47;1.20;;;18.00;99.90;;;17.71;100.00;97076.91;5018144;28;20034;-49
2022/10/23 10:25:33;;;;;;;1.77;1.30;;;18.10;99.90;;;17.78;100.00;97074.66;5021744;28;20045;-50
2022/10/23 10:28:37;;;;;;;2.08;1.40;;;18.10;99.90;;;17.81;99.96;97067.28;5018737;28;20080;-49
2022/10/23 10:31:46;;;;;;;3.50;1.25;;;18.20;99.90;;;17.97;100.00;97063.56;5009928;28;20037;-50